CheckWX is a tool to help pilots better visualize weather data.  It is not intended as a substitute for an official pre-flight weather briefing.

10:15:19 UTC

LEMH TAF
Menorca Airport
Menorca Island, Spain
TAF LEMH 260800Z 2609/2709 09012KT CAVOK TX29/2612Z TN20/2705Z PROB40 TEMPO 2609/2612 09015G25KT BECMG 2620/2622 03008KT

Jun-26@
09:00 UTC

Jun-26 @ 09:00 UTC

Jun-26@
20:00 UTC

Jun-26 @ 20:00 UTC

TAF LEMH 260800Z 2609/2709 09012KT CAVOK TX29/2612Z TN20/2705Z
Wind
  • 090° at 12 KTS
Cloud Levels
  • No significant clouds

Jun-26@
09:00 UTC

Jun-26 @ 09:00 UTC

Jun-26@
12:00 UTC

Jun-26 @ 12:00 UTC

PROB40 TEMPO 2609/2612 09015G25KT

Temporary - 40% Likelihood

Temporary - 40% Likelihood during this time.

Wind
  • 090° at 15 KTS
  • {Gusting to 25 KTS

Jun-26@
20:00 UTC

Jun-26 @ 20:00 UTC

Jun-27@
09:00 UTC

Jun-27 @ 09:00 UTC

BECMG 2620/2622 03008KT

Becoming

Becoming Conditions expected by Wed, Jun 26, 2019 @ 22:00 UTC

Wind
  • 030° at 8 KTS
Cloud Levels
  • No significant clouds